createdAt,value
2023-01-23T00:04:53.898Z,39.63
2023-01-23T00:09:56.365Z,37.08
2023-01-23T00:14:58.768Z,37.92
2023-01-23T00:20:02.650Z,39.47
2023-01-23T00:25:05.684Z,39.55
2023-01-23T00:30:08.650Z,37.13
2023-01-23T00:35:12.510Z,39.15
2023-01-23T00:40:15.075Z,35.65
2023-01-23T00:45:17.557Z,40.78
2023-01-23T00:50:21.608Z,44.78
2023-01-23T00:55:24.204Z,44.42
2023-01-23T01:00:26.599Z,39.95
2023-01-23T01:05:30.413Z,37.45
2023-01-23T01:10:33.984Z,36.08
2023-01-23T01:15:36.378Z,34.85
2023-01-23T01:20:41.593Z,35.47
2023-01-23T01:25:44.080Z,32.78
2023-01-23T01:30:46.570Z,41.95
2023-01-23T01:35:50.307Z,33.90
2023-01-23T01:40:52.853Z,29.63
2023-01-23T01:46:06.114Z,38.78
2023-01-23T01:51:12.576Z,31.50
2023-01-23T01:56:15.487Z,30.88
2023-01-23T02:01:18.625Z,34.38
2023-01-23T02:06:22.422Z,34.75
2023-01-23T02:11:25.285Z,36.35
2023-01-23T02:16:29.836Z,34.77
2023-01-23T02:21:34.346Z,31.75
2023-01-23T02:26:40.306Z,31.67
2023-01-23T02:31:44.461Z,32.90
2023-01-23T02:36:49.177Z,37.00
2023-01-23T02:41:54.321Z,31.33
2023-01-23T02:46:57.701Z,30.80
2023-01-23T02:52:00.091Z,28.88
2023-01-23T02:57:04.349Z,29.95
2023-01-23T03:02:06.910Z,35.10
2023-01-23T03:07:09.411Z,33.50
2023-01-23T03:12:13.184Z,30.98
2023-01-23T03:17:16.023Z,41.78
2023-01-23T03:22:18.556Z,34.40
2023-01-23T03:27:22.333Z,36.55
2023-01-23T03:32:26.046Z,34.92
2023-01-23T03:37:28.579Z,40.85
2023-01-23T03:42:34.039Z,39.58
2023-01-23T03:47:36.789Z,34.75
2023-01-23T03:52:39.325Z,33.97
2023-01-23T03:57:43.107Z,35.85
2023-01-23T04:02:45.709Z,32.20
2023-01-23T04:07:48.155Z,43.10
2023-01-23T04:12:51.955Z,33.08
2023-01-23T04:17:54.387Z,34.63
2023-01-23T04:22:56.888Z,38.80
2023-01-23T04:28:00.709Z,29.65
2023-01-23T04:33:03.171Z,38.50
2023-01-23T04:38:05.592Z,32.47
2023-01-23T04:43:10.289Z,32.25
2023-01-23T04:48:12.856Z,30.77
2023-01-23T04:53:15.256Z,31.73
2023-01-23T04:58:19.719Z,38.72
2023-01-23T05:03:22.106Z,37.17
2023-01-23T05:08:24.488Z,33.58
2023-01-23T05:13:29.040Z,32.30
2023-01-23T05:18:31.529Z,32.40
2023-01-23T05:23:34.039Z,36.67
2023-01-23T05:28:37.780Z,32.22
2023-01-23T05:33:40.480Z,29.90
2023-01-23T05:38:43.062Z,34.53
2023-01-23T05:43:46.939Z,31.10
2023-01-23T05:48:49.922Z,34.45
2023-01-23T05:53:52.330Z,37.15
2023-01-23T05:58:56.170Z,34.13
2023-01-23T06:03:58.612Z,36.95
2023-01-23T06:09:01.384Z,30.20
2023-01-23T06:14:05.161Z,31.40
2023-01-23T06:19:07.653Z,33.25
2023-01-23T06:24:10.080Z,31.60
2023-01-23T06:29:13.855Z,28.33
2023-01-23T06:34:16.381Z,33.35
2023-01-23T06:39:18.753Z,33.53
2023-01-23T06:44:22.548Z,38.95
2023-01-23T06:49:24.975Z,34.97
2023-01-23T06:54:27.390Z,31.05
2023-01-23T06:59:31.194Z,33.75
2023-01-23T07:04:33.870Z,39.85
2023-01-23T07:09:36.337Z,35.23
2023-01-23T07:14:40.178Z,43.85
2023-01-23T07:19:42.623Z,40.78
2023-01-23T07:24:45.093Z,37.25
2023-01-23T07:29:48.833Z,36.88
2023-01-23T07:34:53.147Z,41.60
2023-01-23T07:39:55.592Z,35.78
2023-01-23T07:44:59.309Z,41.03
2023-01-23T07:50:01.701Z,42.05
2023-01-23T07:55:05.858Z,36.97
2023-01-23T08:00:10.851Z,35.80
2023-01-23T08:05:13.379Z,41.55
2023-01-23T08:10:15.777Z,42.22
2023-01-23T08:15:19.575Z,34.83
2023-01-23T08:20:23.088Z,38.78
2023-01-23T08:30:29.115Z,33.17
2023-01-23T08:35:31.539Z,35.10
2023-01-23T08:40:33.998Z,30.33
2023-01-23T08:45:37.943Z,34.08
2023-01-23T08:50:40.384Z,32.78
2023-01-23T08:55:43.192Z,30.33
2023-01-23T09:00:48.544Z,37.63
2023-01-23T09:05:51.060Z,31.60
2023-01-23T09:10:53.504Z,27.98
2023-01-23T09:15:57.327Z,33.65
2023-01-23T09:20:59.811Z,29.50
2023-01-23T09:26:05.923Z,33.38
2023-01-23T09:31:10.861Z,29.55
2023-01-23T09:36:13.693Z,28.83
2023-01-23T09:41:19.094Z,31.43
2023-01-23T09:46:25.808Z,31.35
2023-01-23T09:51:31.614Z,28.15
2023-01-23T09:56:37.080Z,32.58
2023-01-23T10:01:40.900Z,30.58
2023-01-23T10:06:54.702Z,33.25
2023-01-23T10:12:00.666Z,28.55
2023-01-23T10:17:07.856Z,25.20
2023-01-23T10:22:22.839Z,25.73
2023-01-23T10:27:27.432Z,22.00
2023-01-23T10:32:32.116Z,30.42
2023-01-23T10:37:40.585Z,23.30
2023-01-23T10:42:44.083Z,22.85
2023-01-23T10:53:06.444Z,26.05
2023-01-23T10:58:20.830Z,23.55
2023-01-23T11:03:28.649Z,21.33
2023-01-23T11:08:33.359Z,20.08
2023-01-23T11:13:35.823Z,21.15
2023-01-23T11:18:42.544Z,19.02
2023-01-23T11:23:46.419Z,18.65
2023-01-23T11:28:49.894Z,16.73
2023-01-23T11:38:59.748Z,18.35
2023-01-23T11:44:07.804Z,19.20
2023-01-23T11:49:22.877Z,18.27
2023-01-23T11:54:42.966Z,17.70
2023-01-23T11:59:59.768Z,16.98
2023-01-23T12:05:06.313Z,19.75
2023-01-23T12:10:15.398Z,20.40
2023-01-23T12:15:24.251Z,20.58
2023-01-23T12:20:34.168Z,17.88
2023-01-23T12:25:37.374Z,20.38
2023-01-23T12:30:55.721Z,17.08
2023-01-23T12:36:01.832Z,16.65
2023-01-23T12:41:10.293Z,17.52
2023-01-23T12:46:16.993Z,18.90
2023-01-23T12:51:21.908Z,17.67
2023-01-23T12:56:25.934Z,17.92
2023-01-23T13:01:41.846Z,19.52
2023-01-23T13:06:59.862Z,16.65
2023-01-23T13:12:05.536Z,19.80
2023-01-23T13:17:26.629Z,20.95
2023-01-23T13:22:32.499Z,17.88
2023-01-23T13:27:39.899Z,19.95
2023-01-23T13:32:43.772Z,19.30
2023-01-23T13:37:51.926Z,13.10
2023-01-23T13:42:54.309Z,14.02
2023-01-23T14:21:20.896Z,20.02
2023-01-23T14:26:27.098Z,18.75
2023-01-23T14:31:30.417Z,20.92
2023-01-23T14:36:36.403Z,21.65
2023-01-23T14:41:41.621Z,21.33
2023-01-23T14:46:44.304Z,19.23
2023-01-23T14:51:56.426Z,20.50
2023-01-23T14:57:00.249Z,22.17
2023-01-23T15:02:13.074Z,21.20
2023-01-23T15:07:20.241Z,21.58
2023-01-23T15:12:22.643Z,23.73
2023-01-23T15:17:25.104Z,21.08
2023-01-23T15:22:30.039Z,21.73
2023-01-23T15:27:33.169Z,20.67
2023-01-23T15:32:35.855Z,25.77
2023-01-23T15:37:39.686Z,24.35
2023-01-23T15:42:42.083Z,23.70
2023-01-23T15:47:44.573Z,28.85
2023-01-23T15:52:49.289Z,31.02
2023-01-23T15:57:53.308Z,35.05
2023-01-23T16:02:57.647Z,23.08
2023-01-23T16:08:02.583Z,25.85
2023-01-23T16:13:05.190Z,34.15
2023-01-23T16:18:07.877Z,25.50
2023-01-23T16:23:15.430Z,29.03
2023-01-23T16:28:19.044Z,24.33
2023-01-23T16:33:21.935Z,23.98
2023-01-23T16:38:26.699Z,26.17
2023-01-23T16:43:29.160Z,24.55
2023-01-23T16:48:31.589Z,28.25
2023-01-23T16:53:36.398Z,28.08
2023-01-23T16:58:40.658Z,30.30
2023-01-23T17:03:43.382Z,29.58
2023-01-23T17:08:47.741Z,34.10
2023-01-23T17:13:55.017Z,27.77
2023-01-23T17:18:58.535Z,27.30
2023-01-23T17:29:04.656Z,29.55
2023-01-23T17:34:07.482Z,27.55
2023-01-23T17:39:10.509Z,30.23
2023-01-23T17:44:14.305Z,25.35
2023-01-23T17:49:26.856Z,28.10
2023-01-23T17:54:29.607Z,36.03
2023-01-23T17:59:33.373Z,37.13
2023-01-23T18:04:35.901Z,25.67
2023-01-23T18:09:38.278Z,26.40
2023-01-23T18:14:46.373Z,25.50
2023-01-23T18:19:51.539Z,23.95
2023-01-23T18:24:54.179Z,24.05
2023-01-23T18:30:04.360Z,25.30
2023-01-23T18:35:13.985Z,28.35
2023-01-23T18:40:19.106Z,23.98
2023-01-23T18:45:27.197Z,27.10
2023-01-23T18:50:30.418Z,26.25
2023-01-23T18:55:37.309Z,29.03
2023-01-23T19:00:45.707Z,28.70
2023-01-23T19:05:48.389Z,27.95
2023-01-23T19:10:51.167Z,25.53
2023-01-23T19:15:58.774Z,22.93
2023-01-23T19:21:07.680Z,27.85
2023-01-23T19:26:12.495Z,23.38
2023-01-23T19:31:20.627Z,23.52
2023-01-23T19:36:23.924Z,25.75
2023-01-23T19:41:27.174Z,26.67
2023-01-23T19:46:31.881Z,24.08
2023-01-23T19:51:34.636Z,26.33
2023-01-23T19:56:38.936Z,24.20
2023-01-23T20:01:45.416Z,24.55
2023-01-23T20:06:49.054Z,27.75
2023-01-23T20:16:56.037Z,25.58
2023-01-23T20:21:58.526Z,23.73
2023-01-23T20:27:00.967Z,26.30
2023-01-23T20:32:04.822Z,26.60
2023-01-23T20:37:07.220Z,26.98
2023-01-23T20:42:11.266Z,25.65
2023-01-23T20:47:15.319Z,26.92
2023-01-23T20:52:35.137Z,28.20
2023-01-23T20:57:54.928Z,27.92
2023-01-23T21:03:00.014Z,27.02
2023-01-23T21:08:02.563Z,28.48
2023-01-23T21:13:05.029Z,28.80
2023-01-23T21:18:09.022Z,27.35
2023-01-23T21:23:11.523Z,26.02
2023-01-23T21:28:13.958Z,25.50
2023-01-23T21:33:17.859Z,28.70
2023-01-23T21:38:20.520Z,29.33
2023-01-23T21:43:23.010Z,27.47
2023-01-23T21:48:29.110Z,27.02
2023-01-23T21:53:31.525Z,27.45
2023-01-23T21:58:34.269Z,27.70
2023-01-23T22:03:38.068Z,27.17
2023-01-23T22:08:40.546Z,26.65
2023-01-23T22:13:43.070Z,26.05
2023-01-23T22:18:46.885Z,28.38
2023-01-23T22:23:49.377Z,27.38
2023-01-23T22:28:52.040Z,29.50
2023-01-23T22:33:56.119Z,31.37
2023-01-23T22:38:58.500Z,30.35
2023-01-23T22:44:00.869Z,31.52
2023-01-23T22:49:04.612Z,30.05
2023-01-23T22:54:06.970Z,28.80
2023-01-23T22:59:09.702Z,30.70
2023-01-23T23:04:13.467Z,30.50
2023-01-23T23:09:15.938Z,35.53
2023-01-23T23:14:18.426Z,31.75
2023-01-23T23:19:22.181Z,37.33
2023-01-23T23:24:24.706Z,37.10
2023-01-23T23:29:27.174Z,35.58
2023-01-23T23:34:31.074Z,34.50
2023-01-23T23:39:33.452Z,36.42
2023-01-23T23:44:35.879Z,41.40
2023-01-23T23:49:39.635Z,39.33
2023-01-23T23:54:42.030Z,35.55
2023-01-23T23:59:44.476Z,33.83
